Time;durP1;ratioP1;P1;durP2;ratioP2;P2;SDS_P1;SDS_P2;PMS_P1;PMS_P2;Temp;Humidity;BMP_temperature;BMP_pressure;BME280_temperature;BME280_humidity;BME280_pressure;Samples;Min_cycle;Max_cycle;Signal;HPM_P1;HPM_P2
2023/01/08 00:00:57;;;;;;;3.15;1.60;;;;;;;12.11;100.00;100151.47;5052428;28;20044;-75
2023/01/08 00:03:24;;;;;;;3.35;1.35;;;;;;;12.16;100.00;100148.25;5053133;28;20052;-75
2023/01/08 00:05:51;;;;;;;2.53;1.10;;;;;;;12.14;100.00;100136.78;5070566;28;20101;-73
2023/01/08 00:08:17;;;;;;;1.10;0.90;;;;;;;12.10;100.00;100136.84;5065226;28;20051;-72
2023/01/08 00:10:44;;;;;;;4.82;2.30;;;;;;;12.23;100.00;100131.50;5055944;28;20094;-74
2023/01/08 00:13:11;;;;;;;2.58;1.45;;;;;;;12.12;100.00;100134.44;5049235;28;20119;-76
2023/01/08 00:15:38;;;;;;;3.50;1.60;;;;;;;12.10;100.00;100125.75;5050924;28;20608;-74
2023/01/08 00:18:04;;;;;;;2.25;1.15;;;;;;;12.12;100.00;100123.34;5058634;28;20048;-74
2023/01/08 00:20:32;;;;;;;4.65;2.10;;;;;;;12.19;100.00;100117.66;5058063;28;20059;-74
2023/01/08 00:22:59;;;;;;;4.68;1.70;;;;;;;12.22;100.00;100105.72;5054919;28;20052;-73
2023/01/08 00:25:25;;;;;;;2.35;1.48;;;;;;;12.15;100.00;100108.63;5053178;28;20061;-73
2023/01/08 00:27:52;;;;;;;1.80;0.65;;;;;;;12.19;100.00;100112.13;5050563;28;20151;-72
2023/01/08 00:30:18;;;;;;;8.45;2.45;;;;;;;12.14;100.00;100106.28;5049507;28;20872;-74
2023/01/08 00:32:45;;;;;;;2.83;1.67;;;;;;;12.21;100.00;100120.03;5052648;28;20848;-74
2023/01/08 00:35:11;;;;;;;4.03;1.38;;;;;;;12.32;100.00;100115.09;5063103;28;20052;-74
2023/01/08 00:37:37;;;;;;;1.88;1.33;;;;;;;12.28;100.00;100104.03;5052827;28;20044;-74
2023/01/08 00:40:05;;;;;;;3.40;1.50;;;;;;;12.36;100.00;100104.72;5049377;28;20045;-74
2023/01/08 00:42:31;;;;;;;2.15;1.08;;;;;;;12.35;100.00;100097.56;5054485;28;20415;-74
2023/01/08 00:44:58;;;;;;;3.55;1.80;;;;;;;12.37;100.00;100095.16;5057548;28;20060;-75
2023/01/08 00:47:24;;;;;;;6.97;2.08;;;;;;;12.25;100.00;100104.13;5058328;28;20056;-75
2023/01/08 00:49:51;;;;;;;3.28;1.77;;;;;;;12.23;100.00;100109.28;5049746;28;20051;-73
2023/01/08 00:52:17;;;;;;;6.90;1.95;;;;;;;12.30;100.00;100103.63;5049181;28;20044;-75
2023/01/08 00:54:44;;;;;;;4.68;1.10;;;;;;;12.40;100.00;100108.19;5050876;28;20049;-74
2023/01/08 00:57:10;;;;;;;3.58;1.45;;;;;;;12.36;100.00;100110.25;5060382;28;20496;-75
2023/01/08 00:59:37;;;;;;;7.32;1.95;;;;;;;12.41;100.00;100090.34;5056749;28;20757;-74
2023/01/08 01:02:03;;;;;;;4.68;2.08;;;;;;;12.27;100.00;100091.41;5057053;28;20051;-75
2023/01/08 01:04:30;;;;;;;5.25;2.00;;;;;;;12.41;100.00;100084.78;5059047;28;20072;-73
2023/01/08 01:06:56;;;;;;;6.15;1.85;;;;;;;12.38;100.00;100074.53;5056146;28;20051;-74
2023/01/08 01:09:23;;;;;;;3.67;1.83;;;;;;;12.38;100.00;100067.00;5046935;28;20044;-73
2023/01/08 01:11:49;;;;;;;5.80;1.20;;;;;;;12.34;100.00;100076.59;5059041;28;20467;-73
2023/01/08 01:14:16;;;;;;;3.42;1.98;;;;;;;12.36;100.00;100068.66;5053849;28;20047;-74
2023/01/08 01:16:42;;;;;;;0.85;0.73;;;;;;;12.26;100.00;100077.94;5056331;28;20048;-74
2023/01/08 01:19:09;;;;;;;2.30;1.55;;;;;;;12.30;100.00;100078.66;5054018;28;20040;-75
2023/01/08 01:21:36;;;;;;;5.55;1.40;;;;;;;12.29;100.00;100071.56;5061388;28;20131;-73
2023/01/08 01:24:04;;;;;;;3.42;1.65;;;;;;;12.31;100.00;100074.66;5057094;28;20044;-72
2023/01/08 01:26:32;;;;;;;2.22;0.93;;;;;;;12.31;100.00;100074.66;5052219;28;20139;-74
2023/01/08 01:28:59;;;;;;;2.30;1.23;;;;;;;12.27;100.00;100073.97;5052706;28;20044;-74
2023/01/08 01:31:29;;;;;;;4.50;1.17;;;;;;;12.32;100.00;100093.66;5058893;28;20123;-72
2023/01/08 01:33:56;;;;;;;3.92;1.92;;;;;;;12.38;100.00;100088.41;5048423;28;20045;-74
2023/01/08 01:36:23;;;;;;;3.13;1.45;;;;;;;12.32;100.00;100077.03;5048864;28;20055;-76
2023/01/08 01:38:52;;;;;;;3.13;1.45;;;;;;;12.32;100.00;100065.94;5047200;28;20052;-74
2023/01/08 01:41:38;;;;;;;2.88;1.52;;;;;;;12.34;100.00;100087.69;5053621;28;20044;-74
2023/01/08 01:44:36;;;;;;;4.40;2.10;;;;;;;12.39;100.00;100079.66;5046766;28;20801;-76
2023/01/08 01:47:36;;;;;;;6.28;2.38;;;;;;;12.40;100.00;100080.47;5051462;28;20044;-76
2023/01/08 01:50:14;;;;;;;5.75;2.03;;;;;;;12.41;100.00;100071.72;5055520;28;20710;-74
2023/01/08 01:52:49;;;;;;;4.50;1.88;;;;;;;12.43;100.00;100065.75;5059620;28;20048;-72
2023/01/08 01:55:18;;;;;;;4.60;2.25;;;;;;;12.42;100.00;100066.97;5057054;28;20047;-74
2023/01/08 01:57:50;;;;;;;2.55;0.95;;;;;;;12.35;100.00;100067.06;5057574;28;20534;-73
2023/01/08 02:00:18;;;;;;;2.13;1.40;;;;;;;12.28;100.00;100079.09;5050806;28;20063;-74
2023/01/08 02:02:45;;;;;;;4.38;1.38;;;;;;;12.39;100.00;100084.44;5047630;28;20048;-75
2023/01/08 02:05:11;;;;;;;4.80;1.70;;;;;;;12.38;100.00;100080.88;5062029;28;20055;-76
2023/01/08 02:07:48;;;;;;;2.92;1.75;;;;;;;12.43;100.00;100077.59;5051461;28;20785;-75
2023/01/08 02:10:50;;;;;;;6.60;2.38;;;;;;;12.49;100.00;100077.91;5058176;28;20051;-74
2023/01/08 02:13:25;;;;;;;1.13;0.90;;;;;;;12.36;100.00;100082.50;5055298;28;20683;-74
2023/01/08 02:16:28;;;;;;;4.85;2.10;;;;;;;12.46;100.00;100079.53;5049967;28;20099;-75
2023/01/08 02:19:02;;;;;;;5.65;2.17;;;;;;;12.43;100.00;100069.28;5028521;28;20060;-74
2023/01/08 02:21:42;;;;;;;4.68;1.90;;;;;;;12.41;100.00;100057.84;5048408;28;20051;-73
2023/01/08 02:24:23;;;;;;;3.20;1.83;;;;;;;12.36;100.00;100054.78;5052302;28;20134;-74
2023/01/08 02:26:53;;;;;;;1.70;1.20;;;;;;;12.38;100.00;100052.34;5051935;28;20052;-72
2023/01/08 02:29:24;;;;;;;3.28;1.30;;;;;;;12.32;100.00;100054.81;5051376;28;20048;-75
2023/01/08 02:31:51;;;;;;;4.25;1.95;;;;;;;12.27;100.00;100052.56;5044775;28;20048;-75
2023/01/08 02:34:17;;;;;;;1.55;0.90;;;;;;;12.35;100.00;100053.19;5054014;28;20048;-72
2023/01/08 02:36:53;;;;;;;5.38;2.20;;;;;;;12.28;100.00;100028.38;5050876;28;20459;-73
2023/01/08 02:39:46;;;;;;;1.98;1.40;;;;;;;12.28;100.00;100036.69;5058253;28;20889;-73
2023/01/08 02:42:44;;;;;;;5.95;1.83;;;;;;;12.41;100.00;100032.88;5046210;28;20045;-74
2023/01/08 02:45:10;;;;;;;5.88;2.40;;;;;;;12.43;100.00;100022.13;5050127;28;20044;-74
2023/01/08 02:47:45;;;;;;;4.32;2.38;;;;;;;12.42;100.00;100014.25;5054255;28;20040;-74
2023/01/08 02:50:27;;;;;;;9.40;1.92;;;;;;;12.38;100.00;100014.31;5050096;28;20596;-73
2023/01/08 02:53:10;;;;;;;4.18;2.17;;;;;;;12.41;100.00;100012.66;5048241;28;20154;-74
2023/01/08 02:55:40;;;;;;;4.47;2.17;;;;;;;12.44;100.00;100007.06;5048360;28;20048;-74
2023/01/08 02:58:08;;;;;;;1.25;0.73;;;;;;;12.36;100.00;99999.28;5052468;28;20048;-73
2023/01/08 03:00:34;;;;;;;6.40;2.55;;;;;;;12.44;100.00;99990.41;5063175;28;20414;-75
2023/01/08 03:03:23;;;;;;;6.38;2.05;;;;;;;12.28;100.00;99986.75;5074601;28;20052;-75
2023/01/08 03:05:52;;;;;;;7.25;1.80;;;;;;;12.28;100.00;99986.75;5075407;28;20145;-76
2023/01/08 03:08:20;;;;;;;4.55;1.83;;;;;;;12.21;100.00;99989.66;5067043;28;20056;-73
2023/01/08 03:11:11;;;;;;;4.97;1.95;;;;;;;12.22;100.00;99978.16;5074387;28;20123;-76
2023/01/08 03:13:44;;;;;;;9.80;3.05;;;;;;;12.34;100.00;99976.72;5077249;28;20199;-74
2023/01/08 03:16:16;;;;;;;2.55;1.30;;;;;;;12.13;100.00;99974.38;5070493;28;20044;-75
2023/01/08 03:18:54;;;;;;;1.23;0.82;;;;;;;12.17;100.00;99969.53;5069328;28;20052;-74
2023/01/08 03:21:21;;;;;;;6.78;2.80;;;;;;;12.27;100.00;99972.13;5067770;28;20055;-75
2023/01/08 03:23:49;;;;;;;6.63;2.67;;;;;;;12.17;100.00;99962.03;5066514;28;20056;-73
2023/01/08 03:26:23;;;;;;;5.20;2.40;;;;;;;12.15;100.00;99961.66;5067634;28;20037;-74
2023/01/08 03:28:53;;;;;;;7.60;2.40;;;;;;;12.21;100.00;99957.19;5071802;28;20056;-75
2023/01/08 03:31:23;;;;;;;4.05;2.00;;;;;;;12.14;100.00;99962.88;5067147;28;20047;-74
2023/01/08 03:33:50;;;;;;;3.45;1.60;;;;;;;12.11;100.00;99958.16;5067229;28;20045;-74
2023/01/08 03:36:22;;;;;;;9.65;2.33;;;;;;;12.14;100.00;99965.63;5066909;28;20044;-75
2023/01/08 03:39:14;;;;;;;3.63;2.05;;;;;;;12.12;100.00;99956.19;5067429;28;20059;-73
2023/01/08 03:41:41;;;;;;;6.07;2.35;;;;;;;12.14;100.00;99962.06;5067394;28;20071;-75
2023/01/08 03:44:07;;;;;;;6.38;2.45;;;;;;;12.12;100.00;99948.63;5068240;28;20047;-75
2023/01/08 03:46:43;;;;;;;3.15;1.48;;;;;;;12.04;100.00;99943.66;5070717;28;20406;-74
2023/01/08 03:49:10;;;;;;;4.45;2.17;;;;;;;12.09;100.00;99951.50;5071819;28;20048;-74
2023/01/08 03:51:41;;;;;;;4.97;2.60;;;;;;;12.14;100.00;99948.22;5070148;28;20040;-74
2023/01/08 03:54:12;;;;;;;3.92;1.65;;;;;;;12.06;100.00;99960.66;5078427;28;20051;-74
2023/01/08 03:56:39;;;;;;;3.53;1.70;;;;;;;12.05;100.00;99953.56;5082537;28;20048;-74
2023/01/08 03:59:05;;;;;;;1.85;1.23;;;;;;;12.07;100.00;99953.91;5071000;28;20062;-75
2023/01/08 04:01:31;;;;;;;2.13;1.40;;;;;;;11.99;100.00;99958.03;5070971;28;20433;-76
2023/01/08 04:03:58;;;;;;;2.20;1.13;;;;;;;12.01;100.00;99956.38;5070056;28;20083;-76
2023/01/08 04:06:25;;;;;;;4.20;1.73;;;;;;;12.10;100.00;99937.19;5074684;28;20809;-76
2023/01/08 04:08:51;;;;;;;2.67;1.63;;;;;;;12.12;100.00;99932.00;5073731;28;20144;-73
2023/01/08 04:11:19;;;;;;;4.22;1.65;;;;;;;12.07;100.00;99932.50;5078461;28;20744;-73
2023/01/08 04:13:45;;;;;;;1.67;1.15;;;;;;;12.04;100.00;99940.88;5072287;28;20055;-73
2023/01/08 04:16:12;;;;;;;3.47;1.63;;;;;;;12.07;100.00;99937.25;5070587;28;20754;-76
2023/01/08 04:18:38;;;;;;;3.92;1.35;;;;;;;12.02;100.00;99935.00;5069965;28;20056;-73
2023/01/08 04:21:05;;;;;;;2.85;1.83;;;;;;;12.07;100.00;99935.28;5080579;28;20048;-74
2023/01/08 04:23:31;;;;;;;8.75;1.73;;;;;;;12.06;100.00;99935.69;5074643;28;20427;-74
2023/01/08 04:25:58;;;;;;;4.13;1.65;;;;;;;12.07;100.00;99938.06;5071579;28;20051;-76
2023/01/08 04:28:24;;;;;;;4.75;1.40;;;;;;;11.98;100.00;99935.06;5068509;28;20053;-74
2023/01/08 04:30:51;;;;;;;2.28;1.42;;;;;;;12.07;100.00;99929.72;5069635;28;20135;-74
2023/01/08 04:33:17;;;;;;;3.95;1.88;;;;;;;12.03;100.00;99931.78;5070023;28;20052;-74
2023/01/08 04:35:44;;;;;;;3.20;1.50;;;;;;;12.01;100.00;99927.88;5084161;28;20048;-74
2023/01/08 04:38:10;;;;;;;2.75;1.80;;;;;;;12.13;100.00;99919.72;5069729;28;20044;-73
2023/01/08 04:40:37;;;;;;;1.33;0.95;;;;;;;12.10;100.00;99917.00;5068929;28;20047;-74
2023/01/08 04:43:03;;;;;;;4.03;1.77;;;;;;;12.08;100.00;99914.66;5069932;28;20051;-74
2023/01/08 04:45:30;;;;;;;3.53;1.05;;;;;;;12.09;100.00;99918.97;5070215;28;20048;-75
2023/01/08 04:47:57;;;;;;;3.15;1.52;;;;;;;12.10;100.00;99917.00;5070287;28;20045;-72
2023/01/08 04:50:25;;;;;;;2.00;1.30;;;;;;;12.05;100.00;99917.50;5079185;28;20044;-75
2023/01/08 04:52:52;;;;;;;2.20;1.05;;;;;;;12.04;100.00;99910.38;5069788;28;20058;-76
2023/01/08 04:55:19;;;;;;;3.10;1.75;;;;;;;12.14;100.00;99910.19;5070968;28;20506;-75
2023/01/08 04:57:46;;;;;;;1.92;1.35;;;;;;;12.05;100.00;99906.41;5068771;28;20052;-74
2023/01/08 05:00:13;;;;;;;3.70;1.70;;;;;;;12.12;100.00;99900.72;5069818;28;20048;-75
2023/01/08 05:02:40;;;;;;;2.00;1.40;;;;;;;11.99;100.00;99902.56;5076545;28;20051;-75
2023/01/08 05:05:07;;;;;;;2.92;1.48;;;;;;;12.00;100.00;99896.59;5069931;28;20051;-74
2023/01/08 05:07:33;;;;;;;2.92;1.70;;;;;;;12.05;100.00;99887.78;5072111;28;20396;-75
2023/01/08 05:09:59;;;;;;;4.55;2.03;;;;;;;12.09;100.00;99882.19;5069677;28;20044;-74
2023/01/08 05:12:26;;;;;;;3.33;1.75;;;;;;;12.00;100.00;99888.28;5068892;28;20044;-73
2023/01/08 05:14:52;;;;;;;1.50;0.63;;;;;;;11.93;100.00;99893.19;5069396;28;20040;-73
2023/01/08 05:17:19;;;;;;;1.70;1.15;;;;;;;11.93;100.00;99893.19;5069959;28;20048;-76
2023/01/08 05:19:45;;;;;;;0.47;0.47;;;;;;;11.96;100.00;99893.13;5069134;28;20684;-74
2023/01/08 05:22:12;;;;;;;4.65;2.05;;;;;;;12.03;100.00;99898.53;5069039;28;20037;-75
2023/01/08 05:24:38;;;;;;;4.00;1.65;;;;;;;11.95;100.00;99902.63;5068576;28;20756;-73
2023/01/08 05:27:05;;;;;;;1.17;1.05;;;;;;;11.95;100.00;99902.63;5069422;28;20504;-74
2023/01/08 05:29:31;;;;;;;3.55;1.75;;;;;;;11.92;100.00;99908.25;5069098;28;20044;-74
2023/01/08 05:31:58;;;;;;;1.50;1.00;;;;;;;11.87;100.00;99903.97;5070325;28;20079;-74
2023/01/08 05:34:24;;;;;;;1.80;0.90;;;;;;;11.94;100.00;99903.84;5082200;28;20131;-75
2023/01/08 05:36:51;;;;;;;1.10;0.52;;;;;;;11.92;100.00;99897.16;5068637;28;20465;-75
2023/01/08 05:39:17;;;;;;;1.23;0.73;;;;;;;11.83;100.00;99886.66;5068934;28;20395;-74
2023/01/08 05:41:44;;;;;;;2.92;1.13;;;;;;;11.91;100.00;99890.06;5067572;28;20139;-74
2023/01/08 05:44:10;;;;;;;1.08;0.70;;;;;;;11.84;100.00;99890.97;5068299;28;20044;-74
2023/01/08 05:46:37;;;;;;;2.28;1.13;;;;;;;11.92;100.00;99881.31;5069496;28;20049;-75
2023/01/08 05:49:03;;;;;;;2.97;0.93;;;;;;;11.97;100.00;99877.25;5069065;28;20051;-75
2023/01/08 05:51:30;;;;;;;1.75;1.00;;;;;;;11.86;100.00;99879.47;5068184;28;20041;-73
2023/01/08 05:53:56;;;;;;;4.82;1.52;;;;;;;11.92;100.00;99886.84;5068417;28;20082;-75
2023/01/08 05:56:23;;;;;;;2.15;1.15;;;;;;;11.91;100.00;99885.28;5068696;28;20398;-75
2023/01/08 05:58:53;;;;;;;2.72;1.70;;;;;;;11.99;100.00;99881.19;5074390;28;20099;-75
2023/01/08 06:01:20;;;;;;;3.13;0.98;;;;;;;11.91;100.00;99876.22;5069205;28;20036;-75
2023/01/08 06:03:47;;;;;;;2.03;1.10;;;;;;;11.86;100.00;99887.78;5068113;28;20059;-72
2023/01/08 06:06:15;;;;;;;3.38;1.67;;;;;;;11.91;100.00;99884.53;5067797;28;20040;-72
2023/01/08 06:08:41;;;;;;;1.33;0.60;;;;;;;11.75;100.00;99889.97;5067042;28;20054;-76
2023/01/08 06:11:10;;;;;;;2.33;1.25;;;;;;;11.78;100.00;99889.13;5067802;28;20713;-73
2023/01/08 06:13:41;;;;;;;1.90;1.05;;;;;;;11.73;100.00;99889.59;5073453;28;20101;-73
2023/01/08 06:16:08;;;;;;;2.47;1.30;;;;;;;11.72;100.00;99891.63;5068488;28;20036;-76
2023/01/08 06:18:35;;;;;;;4.72;1.40;;;;;;;11.68;100.00;99893.66;5067981;28;20048;-73
2023/01/08 06:21:03;;;;;;;4.40;1.77;;;;;;;11.80;100.00;99886.69;5068272;28;20127;-74
2023/01/08 06:23:30;;;;;;;1.90;0.88;;;;;;;11.65;100.00;99893.72;5068043;28;20518;-74
2023/01/08 06:25:59;;;;;;;2.47;1.05;;;;;;;11.87;100.00;99895.66;5067923;28;20075;-74
2023/01/08 06:28:26;;;;;;;2.78;1.10;;;;;;;11.93;100.00;99893.19;5066727;28;20041;-73
2023/01/08 06:30:52;;;;;;;4.28;1.17;;;;;;;11.93;100.00;99879.31;5065863;28;20048;-74
2023/01/08 06:33:19;;;;;;;0.77;0.68;;;;;;;11.89;100.00;99876.63;5069047;28;20095;-74
2023/01/08 06:35:47;;;;;;;1.58;0.70;;;;;;;11.97;100.00;99893.88;5069070;28;20068;-74
2023/01/08 06:38:13;;;;;;;1.83;1.33;;;;;;;12.04;100.00;99882.66;5070100;28;20052;-74
2023/01/08 06:40:40;;;;;;;1.00;0.70;;;;;;;11.99;100.00;99891.50;5068802;28;20406;-74
2023/01/08 06:43:06;;;;;;;1.17;0.95;;;;;;;11.97;100.00;99885.56;5074933;28;20056;-74
2023/01/08 06:45:33;;;;;;;5.53;1.48;;;;;;;12.03;100.00;99889.41;5068006;28;20055;-76
2023/01/08 06:48:04;;;;;;;1.92;0.90;;;;;;;12.04;100.00;99888.19;5068838;28;20040;-75
2023/01/08 06:50:32;;;;;;;1.63;1.25;;;;;;;12.08;100.00;99894.47;5066639;28;20055;-73
2023/01/08 06:52:59;;;;;;;1.65;0.82;;;;;;;12.07;100.00;99890.91;5069540;28;20052;-75
2023/01/08 06:55:26;;;;;;;3.80;1.10;;;;;;;12.16;100.00;99880.03;5069961;28;20040;-72
2023/01/08 06:57:54;;;;;;;1.42;0.85;;;;;;;12.12;100.00;99886.88;5072217;28;20052;-72
2023/01/08 07:00:22;;;;;;;2.38;0.82;;;;;;;12.05;100.00;99887.00;5075036;28;20036;-73
2023/01/08 07:02:49;;;;;;;4.65;1.23;;;;;;;12.08;100.00;99900.03;5067896;28;20072;-75
2023/01/08 07:05:16;;;;;;;2.15;0.80;;;;;;;12.06;100.00;99910.75;5067875;28;20072;-74
2023/01/08 07:07:43;;;;;;;1.77;1.00;;;;;;;11.79;100.00;99957.19;5067868;28;20059;-74
2023/01/08 07:10:10;;;;;;;2.03;0.57;;;;;;;11.29;100.00;99956.44;5066658;28;20049;-74
2023/01/08 07:12:37;;;;;;;3.58;1.23;;;;;;;10.96;100.00;99957.34;5081484;28;20050;-74
2023/01/08 07:15:03;;;;;;;7.93;1.50;;;;;;;10.92;100.00;99962.94;5071523;28;20045;-76
2023/01/08 07:17:33;;;;;;;1.75;0.95;;;;;;;10.67;100.00;99967.25;5067236;28;20115;-74
2023/01/08 07:20:00;;;;;;;1.63;0.70;;;;;;;10.61;100.00;99957.84;5074383;28;20072;-72
2023/01/08 07:22:27;;;;;;;2.65;1.15;;;;;;;10.64;100.00;99955.06;5076321;28;20043;-75
2023/01/08 07:24:53;;;;;;;5.70;1.00;;;;;;;10.40;100.00;99965.22;5077819;28;20055;-73
2023/01/08 07:27:20;;;;;;;3.72;0.93;;;;;;;10.44;100.00;99960.41;5082700;28;20056;-76
2023/01/08 07:29:46;;;;;;;3.17;0.93;;;;;;;10.38;100.00;99964.06;5090538;28;20043;-73
2023/01/08 07:32:13;;;;;;;5.20;1.48;;;;;;;10.37;100.00;99966.03;5075737;28;20044;-75
2023/01/08 07:34:39;;;;;;;1.35;0.80;;;;;;;10.26;100.00;99965.38;5072333;28;20052;-73
2023/01/08 07:37:06;;;;;;;8.60;1.67;;;;;;;10.34;100.00;99966.91;5080887;28;20059;-73
2023/01/08 07:39:33;;;;;;;1.77;1.13;;;;;;;10.20;100.00;99967.03;5071564;28;20045;-73
2023/01/08 07:41:59;;;;;;;4.10;0.85;;;;;;;10.11;100.00;99961.22;5074867;28;20045;-74
2023/01/08 07:44:25;;;;;;;5.72;1.65;;;;;;;10.14;100.00;99954.88;5077015;28;20048;-74
2023/01/08 07:46:52;;;;;;;9.13;1.98;;;;;;;10.05;100.00;99954.56;5080051;28;20036;-74
2023/01/08 07:49:18;;;;;;;6.32;1.65;;;;;;;10.01;100.00;99969.59;5069531;28;20056;-75
2023/01/08 07:51:48;;;;;;;0.88;0.82;;;;;;;9.93;100.00;99963.34;5076598;28;20055;-75
2023/01/08 07:54:14;;;;;;;9.15;2.65;;;;;;;10.07;100.00;99962.47;5071016;28;20151;-72
2023/01/08 07:56:41;;;;;;;7.28;1.45;;;;;;;9.96;100.00;99961.78;5069848;28;20049;-74
2023/01/08 07:59:07;;;;;;;5.45;1.48;;;;;;;9.92;100.00;99961.00;5079541;28;20044;-75
2023/01/08 08:01:34;;;;;;;3.13;0.68;;;;;;;9.89;100.00;99968.13;5078549;28;20082;-75
2023/01/08 08:04:00;;;;;;;2.55;1.23;;;;;;;9.94;100.00;99969.69;5082878;28;20165;-75
2023/01/08 08:06:27;;;;;;;7.15;2.40;;;;;;;10.02;100.00;99971.94;5069239;28;20036;-74
2023/01/08 08:08:56;;;;;;;3.03;1.33;;;;;;;9.87;100.00;99965.03;5071165;28;20049;-75
2023/01/08 08:11:22;;;;;;;5.03;2.03;;;;;;;9.95;100.00;99962.94;5070137;28;20051;-77
2023/01/08 08:13:49;;;;;;;5.40;1.65;;;;;;;9.97;100.00;99963.34;5070388;28;20055;-76
2023/01/08 08:16:18;;;;;;;5.15;1.85;;;;;;;10.02;100.00;99952.59;5071706;28;20576;-75
2023/01/08 08:18:45;;;;;;;10.25;2.30;;;;;;;10.06;100.00;99938.78;5070170;28;20055;-76
2023/01/08 08:21:11;;;;;;;2.60;0.90;;;;;;;10.00;100.00;99935.66;5070676;28;20058;-74
2023/01/08 08:23:38;;;;;;;3.45;1.25;;;;;;;10.02;100.00;99933.25;5069622;28;20497;-76
2023/01/08 08:26:05;;;;;;;5.30;2.08;;;;;;;10.05;100.00;99937.97;5073176;28;20083;-74
2023/01/08 08:28:31;;;;;;;8.98;1.80;;;;;;;9.99;100.00;99942.38;5075054;28;20491;-75
2023/01/08 08:30:58;;;;;;;9.55;2.20;;;;;;;10.06;100.00;99945.09;5071500;28;20043;-76
2023/01/08 08:33:24;;;;;;;3.13;1.38;;;;;;;9.99;100.00;99942.38;5069955;28;20040;-75
2023/01/08 08:35:51;;;;;;;4.47;1.90;;;;;;;10.03;100.00;99937.59;5070473;28;20044;-75
2023/01/08 08:38:17;;;;;;;12.05;2.28;;;;;;;9.95;100.00;99944.41;5070075;28;20044;-76
2023/01/08 08:40:44;;;;;;;2.25;0.93;;;;;;;9.93;100.00;99944.00;5075229;28;20048;-75
2023/01/08 08:43:10;;;;;;;7.32;2.00;;;;;;;9.93;100.00;99949.53;5078214;28;20055;-75
2023/01/08 08:45:37;;;;;;;1.98;1.05;;;;;;;9.85;100.00;99944.50;5075274;28;20040;-75
2023/01/08 08:48:07;;;;;;;8.30;2.17;;;;;;;9.95;100.00;99940.84;5071740;28;20045;-74
2023/01/08 08:50:34;;;;;;;5.65;1.90;;;;;;;9.83;100.00;99944.13;5074512;28;20048;-75
2023/01/08 08:53:02;;;;;;;2.88;1.35;;;;;;;9.78;100.00;99933.53;5068593;28;20411;-76
2023/01/08 08:55:29;;;;;;;1.73;1.15;;;;;;;9.75;100.00;99935.13;5076979;28;20070;-75
2023/01/08 08:58:09;;;;;;;3.60;1.13;;;;;;;9.84;100.00;99948.47;5069855;28;20503;-77
2023/01/08 09:00:40;;;;;;;2.65;0.63;;;;;;;9.75;100.00;99948.16;5076955;28;20530;-76
2023/01/08 09:03:12;;;;;;;1.75;1.10;;;;;;;9.80;100.00;99931.94;5074622;28;20425;-77
2023/01/08 09:05:39;;;;;;;1.55;0.63;;;;;;;9.82;100.00;99937.81;5070850;28;20052;-75
2023/01/08 09:08:05;;;;;;;4.55;1.10;;;;;;;9.89;100.00;99923.94;5068859;28;20048;-72
2023/01/08 09:10:32;;;;;;;6.05;1.88;;;;;;;10.08;100.00;99915.06;5071323;28;20446;-74
2023/01/08 09:12:58;;;;;;;2.55;1.17;;;;;;;9.99;100.00;99919.50;5067723;28;20055;-73
2023/01/08 09:15:25;;;;;;;2.67;1.08;;;;;;;10.06;100.00;99919.44;5075612;28;20059;-75
2023/01/08 09:17:53;;;;;;;6.20;1.13;;;;;;;10.06;100.00;99922.97;5076434;28;20048;-77
2023/01/08 09:20:20;;;;;;;10.05;2.72;;;;;;;10.15;100.00;99916.94;5090236;28;20057;-74
2023/01/08 09:22:47;;;;;;;8.45;1.85;;;;;;;10.23;100.00;99921.97;5075901;28;20131;-75
2023/01/08 09:25:14;;;;;;;0.38;0.38;;;;;;;10.24;100.00;99926.34;5070244;28;20059;-75
2023/01/08 09:27:40;;;;;;;3.83;0.68;;;;;;;10.20;100.00;99922.81;5072167;28;20058;-76
2023/01/08 09:30:07;;;;;;;4.60;1.17;;;;;;;10.42;100.00;99918.59;5084237;28;20070;-75
2023/01/08 09:32:34;;;;;;;12.25;1.92;;;;;;;10.46;100.00;99913.78;5068589;28;20418;-76
2023/01/08 09:35:00;;;;;;;8.32;1.73;;;;;;;10.64;100.00;99915.53;5068759;28;20054;-75
2023/01/08 09:37:27;;;;;;;8.77;1.65;;;;;;;10.64;100.00;99921.06;5068897;28;20131;-77
2023/01/08 09:39:53;;;;;;;3.65;0.82;;;;;;;10.72;100.00;99909.47;5071199;28;20063;-78
2023/01/08 09:42:29;;;;;;;2.83;1.30;;;;;;;10.74;100.00;99911.81;5072429;28;20051;-74
2023/01/08 09:44:59;;;;;;;5.47;1.10;;;;;;;10.85;100.00;99913.25;5068723;28;20047;-78
2023/01/08 09:47:36;;;;;;;7.97;1.83;;;;;;;11.00;100.00;99914.56;5068530;28;20139;-76
2023/01/08 09:50:06;;;;;;;7.78;1.38;;;;;;;11.03;100.00;99915.75;5072862;28;20054;-77
2023/01/08 09:52:33;;;;;;;9.50;1.45;;;;;;;11.21;100.00;99902.38;5068062;28;20045;-75
2023/01/08 09:55:00;;;;;;;0.57;0.55;;;;;;;11.24;100.00;99896.78;5069589;28;20044;-75
2023/01/08 09:57:27;;;;;;;9.68;1.98;;;;;;;11.18;100.00;99903.22;5079790;28;20048;-77
2023/01/08 09:59:54;;;;;;;10.27;2.60;;;;;;;11.37;100.00;99897.75;5069788;28;20048;-79
2023/01/08 10:02:23;;;;;;;9.75;1.90;;;;;;;11.52;100.00;99899.09;5068762;28;20136;-75
2023/01/08 10:04:58;;;;;;;7.60;2.05;;;;;;;11.43;100.00;99900.81;5079005;28;20052;-76
2023/01/08 10:07:29;;;;;;;7.43;1.55;;;;;;;11.63;100.00;99893.34;5078285;28;20486;-75
2023/01/08 10:09:55;;;;;;;4.15;1.35;;;;;;;11.65;100.00;99893.72;5079479;28;20048;-76
2023/01/08 10:12:28;;;;;;;4.95;1.27;;;;;;;11.78;100.00;99883.59;5077019;28;20639;-76
2023/01/08 10:15:00;;;;;;;6.70;1.35;;;;;;;11.88;100.00;99886.13;5068835;28;21728;-76
2023/01/08 10:17:29;;;;;;;4.80;1.17;;;;;;;12.05;100.00;99887.00;5074574;28;20059;-77
2023/01/08 10:19:56;;;;;;;4.63;1.60;;;;;;;11.87;100.00;99864.38;5070983;28;20064;-76
2023/01/08 10:22:26;;;;;;;5.85;0.90;;;;;;;12.05;100.00;99862.06;5070006;28;20042;-76
2023/01/08 10:25:02;;;;;;;7.65;1.30;;;;;;;11.89;100.00;99871.09;5069740;28;20055;-76
2023/01/08 10:27:28;;;;;;;5.25;1.67;;;;;;;11.82;100.00;99857.38;5068125;28;20045;-76
2023/01/08 10:30:04;;;;;;;4.63;1.50;;;;;;;11.82;100.00;99873.22;5068590;28;20040;-76
2023/01/08 10:32:35;;;;;;;1.63;0.75;;;;;;;11.89;100.00;99857.22;5072191;28;20372;-77
2023/01/08 10:35:04;;;;;;;5.85;1.58;;;;;;;11.94;100.00;99850.38;5081042;28;20048;-78
2023/01/08 10:37:41;;;;;;;2.60;0.35;;;;;;;12.12;100.00;99854.34;5070407;28;20593;-77
2023/01/08 10:40:35;;;;;;;0.63;0.63;;;;;;;12.42;100.00;99842.25;5067771;28;20521;-77
2023/01/08 10:43:27;;;;;;;3.15;1.48;;;;;;;12.41;100.00;99835.09;5071886;28;20499;-75
2023/01/08 10:45:56;;;;;;;2.40;0.85;;;;;;;12.57;100.00;99844.25;5068422;28;20052;-75
2023/01/08 10:48:30;;;;;;;7.28;1.40;;;;;;;12.77;100.00;99830.31;5070356;28;20082;-76
2023/01/08 10:51:16;;;;;;;7.75;1.63;;;;;;;13.07;100.00;99825.19;5078583;28;20048;-75
2023/01/08 10:53:43;;;;;;;5.90;1.33;;;;;;;13.23;100.00;99813.28;5069237;28;20049;-76
2023/01/08 10:56:17;;;;;;;6.70;1.25;;;;;;;13.47;100.00;99808.31;5067977;28;20508;-77
2023/01/08 10:58:44;;;;;;;8.10;2.28;;;;;;;13.80;100.00;99807.00;5075527;28;20048;-76
2023/01/08 11:01:14;;;;;;;1.00;0.50;;;;;;;14.71;100.00;99810.56;5070035;28;20051;-77
2023/01/08 11:03:41;;;;;;;5.45;1.15;;;;;;;16.77;100.00;99804.22;5071632;28;20076;-78
2023/01/08 11:06:16;;;;;;;2.35;0.82;;;;;;;18.61;73.74;99804.03;5077246;28;20052;-75
2023/01/08 11:08:51;;;;;;;9.55;1.75;;;;;;;19.75;69.05;99789.44;5069373;28;20049;-75
2023/01/08 11:11:18;;;;;;;;;;;;;;;19.29;63.53;99800.25;5077444;28;20043;-76
2023/01/08 11:13:55;;;;;;;6.53;1.67;;;;;;;20.88;54.54;99792.38;5071976;28;19939;-76
2023/01/08 11:16:29;;;;;;;4.25;1.20;;;;;;;20.60;53.90;99783.53;5070747;28;20063;-76
2023/01/08 11:18:55;;;;;;;3.00;1.15;;;;;;;20.13;54.16;99784.56;5075286;28;20530;-76
2023/01/08 11:21:25;;;;;;;4.22;1.17;;;;;;;19.87;54.75;99777.16;5066166;28;21036;-77
2023/01/08 11:24:04;;;;;;;5.38;1.52;;;;;;;21.08;54.42;99779.16;5082006;28;20059;-76
2023/01/08 11:26:33;;;;;;;4.40;1.33;;;;;;;22.70;50.98;99770.63;5076290;28;20512;-75
2023/01/08 11:29:23;;;;;;;5.80;1.60;;;;;;;22.51;47.26;99772.28;5079043;28;20716;-75
2023/01/08 11:32:09;;;;;;;1.55;0.82;;;;;;;18.70;57.19;99772.41;5068153;28;20040;-75
2023/01/08 11:34:48;;;;;;;2.75;1.40;;;;;;;17.20;72.37;99762.09;5067596;28;20446;-76